sensor_id;sensor_type;location;lat;lon;timestamp;temperature;humidity
21759;DHT22;11041;50.854;20.580;2023-09-12T00:02:13;15.80;99.90
21759;DHT22;11041;50.854;20.580;2023-09-12T00:04:43;15.80;99.90
21759;DHT22;11041;50.854;20.580;2023-09-12T00:07:10;15.90;99.90
21759;DHT22;11041;50.854;20.580;2023-09-12T00:09:40;15.90;99.90
21759;DHT22;11041;50.854;20.580;2023-09-12T00:12:09;15.90;99.90
21759;DHT22;11041;50.854;20.580;2023-09-12T00:14:43;16.00;99.90
21759;DHT22;11041;50.854;20.580;2023-09-12T00:17:10;16.10;99.90
21759;DHT22;11041;50.854;20.580;2023-09-12T00:19:37;16.10;99.90
21759;DHT22;11041;50.854;20.580;2023-09-12T00:22:03;16.20;99.90
21759;DHT22;11041;50.854;20.580;2023-09-12T00:24:33;16.10;99.90
21759;DHT22;11041;50.854;20.580;2023-09-12T00:26:59;16.10;99.90
21759;DHT22;11041;50.854;20.580;2023-09-12T00:29:26;16.20;99.90
21759;DHT22;11041;50.854;20.580;2023-09-12T00:31:53;16.20;99.90
21759;DHT22;11041;50.854;20.580;2023-09-12T00:34:20;16.20;99.90
21759;DHT22;11041;50.854;20.580;2023-09-12T00:36:49;16.20;99.90
21759;DHT22;11041;50.854;20.580;2023-09-12T00:39:16;16.20;99.90
21759;DHT22;11041;50.854;20.580;2023-09-12T00:41:42;16.20;99.90
21759;DHT22;11041;50.854;20.580;2023-09-12T00:44:10;16.20;99.90
21759;DHT22;11041;50.854;20.580;2023-09-12T00:46:38;16.30;99.90
21759;DHT22;11041;50.854;20.580;2023-09-12T00:49:06;15.90;99.90
21759;DHT22;11041;50.854;20.580;2023-09-12T00:51:35;15.80;99.90
21759;DHT22;11041;50.854;20.580;2023-09-12T00:54:06;15.80;99.90
21759;DHT22;11041;50.854;20.580;2023-09-12T00:56:35;15.90;99.90
21759;DHT22;11041;50.854;20.580;2023-09-12T00:59:03;15.90;99.90
21759;DHT22;11041;50.854;20.580;2023-09-12T01:01:32;16.00;99.90
21759;DHT22;11041;50.854;20.580;2023-09-12T01:04:00;16.00;99.90
21759;DHT22;11041;50.854;20.580;2023-09-12T01:06:31;15.90;99.90
21759;DHT22;11041;50.854;20.580;2023-09-12T01:09:00;15.80;99.90
21759;DHT22;11041;50.854;20.580;2023-09-12T01:11:28;15.80;99.90
21759;DHT22;11041;50.854;20.580;2023-09-12T01:13:58;16.00;99.90
21759;DHT22;11041;50.854;20.580;2023-09-12T01:16:26;16.10;99.90
21759;DHT22;11041;50.854;20.580;2023-09-12T01:18:53;16.00;99.90
21759;DHT22;11041;50.854;20.580;2023-09-12T01:27:41;16.10;99.90
21759;DHT22;11041;50.854;20.580;2023-09-12T01:30:12;16.10;99.90
21759;DHT22;11041;50.854;20.580;2023-09-12T01:32:54;16.10;99.90
21759;DHT22;11041;50.854;20.580;2023-09-12T01:35:23;16.10;99.90
21759;DHT22;11041;50.854;20.580;2023-09-12T01:37:50;16.10;99.90
21759;DHT22;11041;50.854;20.580;2023-09-12T01:40:20;16.10;99.90
21759;DHT22;11041;50.854;20.580;2023-09-12T01:42:56;16.10;99.90
21759;DHT22;11041;50.854;20.580;2023-09-12T01:45:24;16.00;99.90
21759;DHT22;11041;50.854;20.580;2023-09-12T01:47:51;16.00;99.90
21759;DHT22;11041;50.854;20.580;2023-09-12T01:50:21;16.00;99.90
21759;DHT22;11041;50.854;20.580;2023-09-12T01:52:52;15.90;99.90
21759;DHT22;11041;50.854;20.580;2023-09-12T01:55:20;15.90;99.90
21759;DHT22;11041;50.854;20.580;2023-09-12T01:58:10;15.80;99.90
21759;DHT22;11041;50.854;20.580;2023-09-12T02:00:40;15.90;99.90
21759;DHT22;11041;50.854;20.580;2023-09-12T02:03:09;15.90;99.90
21759;DHT22;11041;50.854;20.580;2023-09-12T02:05:38;15.80;99.90
21759;DHT22;11041;50.854;20.580;2023-09-12T02:08:08;15.80;99.90
21759;DHT22;11041;50.854;20.580;2023-09-12T02:10:38;15.70;99.90
21759;DHT22;11041;50.854;20.580;2023-09-12T02:13:04;15.60;99.90
21759;DHT22;11041;50.854;20.580;2023-09-12T02:15:34;15.50;99.90
21759;DHT22;11041;50.854;20.580;2023-09-12T02:18:02;15.60;99.90
21759;DHT22;11041;50.854;20.580;2023-09-12T02:20:31;15.50;99.90
21759;DHT22;11041;50.854;20.580;2023-09-12T02:23:03;15.50;99.90
21759;DHT22;11041;50.854;20.580;2023-09-12T02:25:30;15.60;99.90
21759;DHT22;11041;50.854;20.580;2023-09-12T02:27:59;15.50;99.90
21759;DHT22;11041;50.854;20.580;2023-09-12T02:30:26;15.50;99.90
21759;DHT22;11041;50.854;20.580;2023-09-12T02:32:53;15.50;99.90
21759;DHT22;11041;50.854;20.580;2023-09-12T02:35:20;15.40;99.90
21759;DHT22;11041;50.854;20.580;2023-09-12T02:37:46;15.50;99.90
21759;DHT22;11041;50.854;20.580;2023-09-12T02:40:13;15.50;99.90
21759;DHT22;11041;50.854;20.580;2023-09-12T02:42:44;15.50;99.90
21759;DHT22;11041;50.854;20.580;2023-09-12T02:45:13;15.50;99.90
21759;DHT22;11041;50.854;20.580;2023-09-12T02:47:39;15.50;99.90
21759;DHT22;11041;50.854;20.580;2023-09-12T02:50:06;15.50;99.90
21759;DHT22;11041;50.854;20.580;2023-09-12T02:52:36;15.50;99.90
21759;DHT22;11041;50.854;20.580;2023-09-12T02:55:03;15.30;99.90
21759;DHT22;11041;50.854;20.580;2023-09-12T02:57:30;15.40;99.90
21759;DHT22;11041;50.854;20.580;2023-09-12T02:59:59;15.30;99.90
21759;DHT22;11041;50.854;20.580;2023-09-12T03:02:26;15.30;99.90
21759;DHT22;11041;50.854;20.580;2023-09-12T03:04:55;15.40;99.90
21759;DHT22;11041;50.854;20.580;2023-09-12T03:07:23;15.50;99.90
21759;DHT22;11041;50.854;20.580;2023-09-12T03:09:52;15.50;99.90
21759;DHT22;11041;50.854;20.580;2023-09-12T03:12:24;15.40;99.90
21759;DHT22;11041;50.854;20.580;2023-09-12T03:14:52;15.40;99.90
21759;DHT22;11041;50.854;20.580;2023-09-12T03:17:19;15.40;99.90
21759;DHT22;11041;50.854;20.580;2023-09-12T03:19:46;15.50;99.90
21759;DHT22;11041;50.854;20.580;2023-09-12T03:22:14;15.60;99.90
21759;DHT22;11041;50.854;20.580;2023-09-12T03:24:42;15.40;99.90
21759;DHT22;11041;50.854;20.580;2023-09-12T03:27:11;15.40;99.90
21759;DHT22;11041;50.854;20.580;2023-09-12T03:29:39;15.30;99.90
21759;DHT22;11041;50.854;20.580;2023-09-12T03:32:05;15.40;99.90
21759;DHT22;11041;50.854;20.580;2023-09-12T03:34:36;15.50;99.90
21759;DHT22;11041;50.854;20.580;2023-09-12T03:37:03;15.50;99.90
21759;DHT22;11041;50.854;20.580;2023-09-12T03:39:31;15.50;99.90
21759;DHT22;11041;50.854;20.580;2023-09-12T03:42:02;15.50;99.90
21759;DHT22;11041;50.854;20.580;2023-09-12T03:44:29;15.50;99.90
21759;DHT22;11041;50.854;20.580;2023-09-12T03:46:56;15.60;99.90
21759;DHT22;11041;50.854;20.580;2023-09-12T03:49:24;15.60;99.90
21759;DHT22;11041;50.854;20.580;2023-09-12T03:51:55;15.70;99.90
21759;DHT22;11041;50.854;20.580;2023-09-12T03:54:22;15.70;99.90
21759;DHT22;11041;50.854;20.580;2023-09-12T03:56:53;15.70;99.90
21759;DHT22;11041;50.854;20.580;2023-09-12T03:59:19;15.80;99.90
21759;DHT22;11041;50.854;20.580;2023-09-12T04:01:49;15.80;99.90
21759;DHT22;11041;50.854;20.580;2023-09-12T04:04:16;15.80;99.90
21759;DHT22;11041;50.854;20.580;2023-09-12T04:06:42;15.80;99.90
21759;DHT22;11041;50.854;20.580;2023-09-12T04:09:09;15.80;99.90
21759;DHT22;11041;50.854;20.580;2023-09-12T04:11:36;15.90;99.90
21759;DHT22;11041;50.854;20.580;2023-09-12T04:14:03;15.80;99.90
21759;DHT22;11041;50.854;20.580;2023-09-12T04:16:30;15.80;99.90
21759;DHT22;11041;50.854;20.580;2023-09-12T04:18:57;15.80;99.90
21759;DHT22;11041;50.854;20.580;2023-09-12T04:21:26;15.80;99.90
21759;DHT22;11041;50.854;20.580;2023-09-12T04:23:53;15.80;99.90
21759;DHT22;11041;50.854;20.580;2023-09-12T04:26:19;15.80;99.90
21759;DHT22;11041;50.854;20.580;2023-09-12T04:28:49;15.90;99.90
21759;DHT22;11041;50.854;20.580;2023-09-12T04:31:16;15.90;99.90
21759;DHT22;11041;50.854;20.580;2023-09-12T04:33:45;15.90;99.90
21759;DHT22;11041;50.854;20.580;2023-09-12T04:36:13;15.90;99.90
21759;DHT22;11041;50.854;20.580;2023-09-12T04:38:40;16.00;99.90
21759;DHT22;11041;50.854;20.580;2023-09-12T04:41:07;16.00;99.90
21759;DHT22;11041;50.854;20.580;2023-09-12T04:43:34;16.10;99.90
21759;DHT22;11041;50.854;20.580;2023-09-12T04:46:01;16.10;99.90
21759;DHT22;11041;50.854;20.580;2023-09-12T04:48:28;16.10;99.90
21759;DHT22;11041;50.854;20.580;2023-09-12T04:50:55;16.10;99.90
21759;DHT22;11041;50.854;20.580;2023-09-12T04:53:22;16.20;99.90
21759;DHT22;11041;50.854;20.580;2023-09-12T04:55:52;16.20;99.90
21759;DHT22;11041;50.854;20.580;2023-09-12T04:58:22;16.20;99.90
21759;DHT22;11041;50.854;20.580;2023-09-12T05:00:50;16.30;99.90
21759;DHT22;11041;50.854;20.580;2023-09-12T05:03:17;16.40;99.90
21759;DHT22;11041;50.854;20.580;2023-09-12T05:05:49;16.40;99.90
21759;DHT22;11041;50.854;20.580;2023-09-12T05:08:18;16.40;99.90
21759;DHT22;11041;50.854;20.580;2023-09-12T05:10:49;16.50;99.90
21759;DHT22;11041;50.854;20.580;2023-09-12T05:13:16;16.40;99.90
21759;DHT22;11041;50.854;20.580;2023-09-12T05:15:44;16.50;99.90
21759;DHT22;11041;50.854;20.580;2023-09-12T05:18:11;16.60;99.90
21759;DHT22;11041;50.854;20.580;2023-09-12T05:20:37;16.50;99.90
21759;DHT22;11041;50.854;20.580;2023-09-12T05:23:05;16.40;99.90
21759;DHT22;11041;50.854;20.580;2023-09-12T05:25:31;16.50;99.90
21759;DHT22;11041;50.854;20.580;2023-09-12T05:27:58;16.60;99.90
21759;DHT22;11041;50.854;20.580;2023-09-12T05:30:25;16.70;99.90
21759;DHT22;11041;50.854;20.580;2023-09-12T05:32:53;16.70;99.90
21759;DHT22;11041;50.854;20.580;2023-09-12T05:35:22;16.80;99.90
21759;DHT22;11041;50.854;20.580;2023-09-12T05:37:50;16.90;99.90
21759;DHT22;11041;50.854;20.580;2023-09-12T05:40:18;16.90;99.90
21759;DHT22;11041;50.854;20.580;2023-09-12T05:42:45;16.90;99.90
21759;DHT22;11041;50.854;20.580;2023-09-12T05:45:11;17.00;99.90
21759;DHT22;11041;50.854;20.580;2023-09-12T05:47:38;17.00;99.90
21759;DHT22;11041;50.854;20.580;2023-09-12T05:50:06;17.10;99.90
21759;DHT22;11041;50.854;20.580;2023-09-12T05:52:33;17.00;99.90
21759;DHT22;11041;50.854;20.580;2023-09-12T05:55:00;17.10;99.90
21759;DHT22;11041;50.854;20.580;2023-09-12T05:57:30;17.10;99.90
21759;DHT22;11041;50.854;20.580;2023-09-12T06:00:02;17.10;99.90
21759;DHT22;11041;50.854;20.580;2023-09-12T06:02:32;17.10;99.90
21759;DHT22;11041;50.854;20.580;2023-09-12T06:04:59;17.20;99.90
21759;DHT22;11041;50.854;20.580;2023-09-12T06:07:41;17.30;99.90
21759;DHT22;11041;50.854;20.580;2023-09-12T06:10:10;17.30;99.90
21759;DHT22;11041;50.854;20.580;2023-09-12T06:12:40;17.40;99.90
21759;DHT22;11041;50.854;20.580;2023-09-12T06:15:09;17.40;99.90
21759;DHT22;11041;50.854;20.580;2023-09-12T06:17:38;17.50;99.90
21759;DHT22;11041;50.854;20.580;2023-09-12T06:20:05;17.60;99.90
21759;DHT22;11041;50.854;20.580;2023-09-12T06:22:32;17.60;99.90
21759;DHT22;11041;50.854;20.580;2023-09-12T06:25:00;17.70;99.90
21759;DHT22;11041;50.854;20.580;2023-09-12T06:27:27;17.80;99.90
21759;DHT22;11041;50.854;20.580;2023-09-12T06:29:54;17.90;99.90
21759;DHT22;11041;50.854;20.580;2023-09-12T06:32:21;18.00;99.90
21759;DHT22;11041;50.854;20.580;2023-09-12T06:34:51;18.10;99.90
21759;DHT22;11041;50.854;20.580;2023-09-12T06:37:18;18.10;99.90
21759;DHT22;11041;50.854;20.580;2023-09-12T06:39:49;18.30;99.90
21759;DHT22;11041;50.854;20.580;2023-09-12T06:42:18;18.30;99.90
21759;DHT22;11041;50.854;20.580;2023-09-12T06:44:46;18.50;99.90
21759;DHT22;11041;50.854;20.580;2023-09-12T06:47:13;18.60;99.90
21759;DHT22;11041;50.854;20.580;2023-09-12T06:49:40;18.70;99.90
21759;DHT22;11041;50.854;20.580;2023-09-12T06:52:09;18.80;99.90
21759;DHT22;11041;50.854;20.580;2023-09-12T06:54:38;19.00;99.90
21759;DHT22;11041;50.854;20.580;2023-09-12T06:57:10;19.10;99.90
21759;DHT22;11041;50.854;20.580;2023-09-12T06:59:40;19.20;99.90
21759;DHT22;11041;50.854;20.580;2023-09-12T07:02:07;19.30;99.90
21759;DHT22;11041;50.854;20.580;2023-09-12T07:04:34;19.50;99.90
21759;DHT22;11041;50.854;20.580;2023-09-12T07:07:02;19.60;99.90
21759;DHT22;11041;50.854;20.580;2023-09-12T07:09:28;19.90;99.90
21759;DHT22;11041;50.854;20.580;2023-09-12T07:11:55;19.90;99.90
21759;DHT22;11041;50.854;20.580;2023-09-12T07:14:21;20.00;99.90
21759;DHT22;11041;50.854;20.580;2023-09-12T07:16:50;20.10;99.90
21759;DHT22;11041;50.854;20.580;2023-09-12T07:19:19;20.10;99.90
21759;DHT22;11041;50.854;20.580;2023-09-12T07:21:46;20.10;99.90
21759;DHT22;11041;50.854;20.580;2023-09-12T07:24:13;20.20;99.90
21759;DHT22;11041;50.854;20.580;2023-09-12T07:26:40;20.30;99.90
21759;DHT22;11041;50.854;20.580;2023-09-12T07:29:09;20.40;99.90
21759;DHT22;11041;50.854;20.580;2023-09-12T07:31:44;20.50;99.90
21759;DHT22;11041;50.854;20.580;2023-09-12T07:34:11;20.50;99.90
21759;DHT22;11041;50.854;20.580;2023-09-12T07:36:41;20.60;99.90
21759;DHT22;11041;50.854;20.580;2023-09-12T07:39:07;20.70;99.90
21759;DHT22;11041;50.854;20.580;2023-09-12T07:41:34;20.80;99.90
21759;DHT22;11041;50.854;20.580;2023-09-12T07:44:01;20.80;99.90
21759;DHT22;11041;50.854;20.580;2023-09-12T07:46:31;20.90;99.90
21759;DHT22;11041;50.854;20.580;2023-09-12T07:48:59;21.00;99.90
21759;DHT22;11041;50.854;20.580;2023-09-12T07:51:27;21.10;99.90
21759;DHT22;11041;50.854;20.580;2023-09-12T07:53:54;21.20;99.90
21759;DHT22;11041;50.854;20.580;2023-09-12T07:56:21;21.20;99.90
21759;DHT22;11041;50.854;20.580;2023-09-12T07:58:48;21.30;99.90
21759;DHT22;11041;50.854;20.580;2023-09-12T08:01:15;21.40;99.90
21759;DHT22;11041;50.854;20.580;2023-09-12T08:03:43;21.40;99.90
21759;DHT22;11041;50.854;20.580;2023-09-12T08:06:10;21.50;99.90
21759;DHT22;11041;50.854;20.580;2023-09-12T08:08:37;21.50;99.90
21759;DHT22;11041;50.854;20.580;2023-09-12T08:11:04;21.70;99.90
21759;DHT22;11041;50.854;20.580;2023-09-12T08:13:31;21.70;99.90
21759;DHT22;11041;50.854;20.580;2023-09-12T08:15:57;21.80;99.90
21759;DHT22;11041;50.854;20.580;2023-09-12T08:18:28;21.90;99.90
21759;DHT22;11041;50.854;20.580;2023-09-12T08:20:56;22.10;99.90
21759;DHT22;11041;50.854;20.580;2023-09-12T08:23:25;22.20;99.90
21759;DHT22;11041;50.854;20.580;2023-09-12T08:25:51;22.10;99.90
21759;DHT22;11041;50.854;20.580;2023-09-12T08:28:18;22.20;99.90
21759;DHT22;11041;50.854;20.580;2023-09-12T08:30:45;22.40;99.90
21759;DHT22;11041;50.854;20.580;2023-09-12T08:33:15;22.40;99.90
21759;DHT22;11041;50.854;20.580;2023-09-12T08:35:43;22.40;99.90
21759;DHT22;11041;50.854;20.580;2023-09-12T08:38:12;22.50;99.90
21759;DHT22;11041;50.854;20.580;2023-09-12T08:40:48;22.40;99.90
21759;DHT22;11041;50.854;20.580;2023-09-12T08:43:16;22.40;99.90
21759;DHT22;11041;50.854;20.580;2023-09-12T08:45:44;22.50;99.90
21759;DHT22;11041;50.854;20.580;2023-09-12T08:48:13;22.60;99.90
21759;DHT22;11041;50.854;20.580;2023-09-12T08:50:43;22.70;99.90
21759;DHT22;11041;50.854;20.580;2023-09-12T08:53:12;22.80;99.90
21759;DHT22;11041;50.854;20.580;2023-09-12T08:55:40;22.80;99.90
21759;DHT22;11041;50.854;20.580;2023-09-12T08:58:07;22.60;99.90
21759;DHT22;11041;50.854;20.580;2023-09-12T09:00:36;22.90;99.90
21759;DHT22;11041;50.854;20.580;2023-09-12T09:03:04;22.90;99.90
21759;DHT22;11041;50.854;20.580;2023-09-12T09:05:33;23.00;99.90
21759;DHT22;11041;50.854;20.580;2023-09-12T09:08:03;23.10;99.90
21759;DHT22;11041;50.854;20.580;2023-09-12T09:10:32;23.10;99.90
21759;DHT22;11041;50.854;20.580;2023-09-12T09:12:58;23.30;99.90
21759;DHT22;11041;50.854;20.580;2023-09-12T09:15:29;23.50;99.90
21759;DHT22;11041;50.854;20.580;2023-09-12T09:18:02;23.70;99.90
21759;DHT22;11041;50.854;20.580;2023-09-12T09:20:34;23.60;99.90
21759;DHT22;11041;50.854;20.580;2023-09-12T09:23:07;23.70;99.90
21759;DHT22;11041;50.854;20.580;2023-09-12T09:25:42;23.80;99.90
21759;DHT22;11041;50.854;20.580;2023-09-12T09:28:18;23.90;99.90
21759;DHT22;11041;50.854;20.580;2023-09-12T09:30:49;23.90;99.90
21759;DHT22;11041;50.854;20.580;2023-09-12T09:33:17;24.20;99.90
21759;DHT22;11041;50.854;20.580;2023-09-12T09:35:49;24.40;99.90
21759;DHT22;11041;50.854;20.580;2023-09-12T09:38:19;24.40;99.90
21759;DHT22;11041;50.854;20.580;2023-09-12T09:40:47;24.30;99.90
21759;DHT22;11041;50.854;20.580;2023-09-12T09:43:22;24.20;99.90
21759;DHT22;11041;50.854;20.580;2023-09-12T09:45:51;24.30;99.90
21759;DHT22;11041;50.854;20.580;2023-09-12T09:48:23;24.40;99.90
21759;DHT22;11041;50.854;20.580;2023-09-12T09:50:53;24.50;99.90
21759;DHT22;11041;50.854;20.580;2023-09-12T09:53:27;24.30;99.90
21759;DHT22;11041;50.854;20.580;2023-09-12T09:56:11;24.40;99.90
21759;DHT22;11041;50.854;20.580;2023-09-12T09:58:54;24.30;99.90
21759;DHT22;11041;50.854;20.580;2023-09-12T10:01:27;24.20;99.90
21759;DHT22;11041;50.854;20.580;2023-09-12T10:04:00;24.30;99.90
21759;DHT22;11041;50.854;20.580;2023-09-12T10:06:29;24.40;99.90
21759;DHT22;11041;50.854;20.580;2023-09-12T10:09:08;24.60;99.90
21759;DHT22;11041;50.854;20.580;2023-09-12T10:11:39;24.60;99.90
21759;DHT22;11041;50.854;20.580;2023-09-12T10:14:08;24.90;99.90
21759;DHT22;11041;50.854;20.580;2023-09-12T10:16:42;24.80;99.90
21759;DHT22;11041;50.854;20.580;2023-09-12T10:22:21;25.10;99.90
21759;DHT22;11041;50.854;20.580;2023-09-12T10:24:52;25.20;99.90
21759;DHT22;11041;50.854;20.580;2023-09-12T10:27:22;25.40;99.90
21759;DHT22;11041;50.854;20.580;2023-09-12T10:29:52;25.40;99.90
21759;DHT22;11041;50.854;20.580;2023-09-12T10:32:20;25.20;99.90
21759;DHT22;11041;50.854;20.580;2023-09-12T10:34:49;25.20;99.90
21759;DHT22;11041;50.854;20.580;2023-09-12T10:37:17;25.20;99.90
21759;DHT22;11041;50.854;20.580;2023-09-12T10:39:49;25.20;99.90
21759;DHT22;11041;50.854;20.580;2023-09-12T10:42:20;25.20;99.90
21759;DHT22;11041;50.854;20.580;2023-09-12T10:44:48;25.40;99.90
21759;DHT22;11041;50.854;20.580;2023-09-12T10:47:19;25.50;99.90
21759;DHT22;11041;50.854;20.580;2023-09-12T10:49:46;25.50;99.90
21759;DHT22;11041;50.854;20.580;2023-09-12T10:52:26;25.60;99.90
21759;DHT22;11041;50.854;20.580;2023-09-12T10:54:54;25.80;99.90
21759;DHT22;11041;50.854;20.580;2023-09-12T10:57:22;25.80;99.90
21759;DHT22;11041;50.854;20.580;2023-09-12T11:02:32;25.90;99.90
21759;DHT22;11041;50.854;20.580;2023-09-12T11:07:58;25.90;99.90
21759;DHT22;11041;50.854;20.580;2023-09-12T11:10:27;25.90;99.90
21759;DHT22;11041;50.854;20.580;2023-09-12T11:12:56;26.00;99.90
21759;DHT22;11041;50.854;20.580;2023-09-12T11:15:25;26.00;99.90
21759;DHT22;11041;50.854;20.580;2023-09-12T11:18:02;26.00;99.90
21759;DHT22;11041;50.854;20.580;2023-09-12T11:21:13;25.70;99.90
21759;DHT22;11041;50.854;20.580;2023-09-12T11:23:40;25.80;99.90
21759;DHT22;11041;50.854;20.580;2023-09-12T11:26:07;25.80;99.90
21759;DHT22;11041;50.854;20.580;2023-09-12T11:28:36;25.80;99.90
21759;DHT22;11041;50.854;20.580;2023-09-12T11:31:06;26.00;99.90
21759;DHT22;11041;50.854;20.580;2023-09-12T11:33:33;26.10;99.90
21759;DHT22;11041;50.854;20.580;2023-09-12T11:36:00;26.40;99.90
21759;DHT22;11041;50.854;20.580;2023-09-12T11:38:31;26.30;99.90
21759;DHT22;11041;50.854;20.580;2023-09-12T11:40:58;26.40;99.90
21759;DHT22;11041;50.854;20.580;2023-09-12T11:43:27;26.20;99.90
21759;DHT22;11041;50.854;20.580;2023-09-12T11:45:56;26.50;99.90
21759;DHT22;11041;50.854;20.580;2023-09-12T11:48:24;26.40;99.90
21759;DHT22;11041;50.854;20.580;2023-09-12T11:50:53;26.50;99.90
21759;DHT22;11041;50.854;20.580;2023-09-12T11:53:25;26.60;99.90
21759;DHT22;11041;50.854;20.580;2023-09-12T11:55:58;26.70;99.90
21759;DHT22;11041;50.854;20.580;2023-09-12T11:58:26;26.80;99.90
21759;DHT22;11041;50.854;20.580;2023-09-12T12:00:55;26.90;99.90
21759;DHT22;11041;50.854;20.580;2023-09-12T12:03:25;26.90;99.90
21759;DHT22;11041;50.854;20.580;2023-09-12T12:05:54;27.10;99.90
21759;DHT22;11041;50.854;20.580;2023-09-12T12:08:22;27.20;99.90
21759;DHT22;11041;50.854;20.580;2023-09-12T12:10:54;27.40;99.90
21759;DHT22;11041;50.854;20.580;2023-09-12T12:13:24;27.50;99.90
21759;DHT22;11041;50.854;20.580;2023-09-12T12:15:51;27.80;99.90
21759;DHT22;11041;50.854;20.580;2023-09-12T12:18:20;27.90;99.90
21759;DHT22;11041;50.854;20.580;2023-09-12T12:20:48;27.90;99.90
21759;DHT22;11041;50.854;20.580;2023-09-12T12:23:15;28.10;99.90
21759;DHT22;11041;50.854;20.580;2023-09-12T12:25:41;27.70;99.90
21759;DHT22;11041;50.854;20.580;2023-09-12T12:28:09;27.70;99.90
21759;DHT22;11041;50.854;20.580;2023-09-12T12:30:36;27.90;99.90
21759;DHT22;11041;50.854;20.580;2023-09-12T12:33:12;28.10;99.90
21759;DHT22;11041;50.854;20.580;2023-09-12T12:35:38;28.50;99.90
21759;DHT22;11041;50.854;20.580;2023-09-12T12:38:05;28.90;99.90
21759;DHT22;11041;50.854;20.580;2023-09-12T12:40:36;28.80;99.90
21759;DHT22;11041;50.854;20.580;2023-09-12T12:43:16;29.00;99.90
21759;DHT22;11041;50.854;20.580;2023-09-12T12:45:54;29.00;99.90
21759;DHT22;11041;50.854;20.580;2023-09-12T12:48:34;28.70;99.90
21759;DHT22;11041;50.854;20.580;2023-09-12T12:51:19;29.10;99.90
21759;DHT22;11041;50.854;20.580;2023-09-12T12:53:53;29.00;99.90
21759;DHT22;11041;50.854;20.580;2023-09-12T12:56:23;28.90;99.90
21759;DHT22;11041;50.854;20.580;2023-09-12T12:58:58;29.00;99.90
21759;DHT22;11041;50.854;20.580;2023-09-12T13:01:29;29.00;99.90
21759;DHT22;11041;50.854;20.580;2023-09-12T13:03:57;29.10;99.90
21759;DHT22;11041;50.854;20.580;2023-09-12T13:06:27;28.90;99.90
21759;DHT22;11041;50.854;20.580;2023-09-12T13:09:00;28.70;99.90
21759;DHT22;11041;50.854;20.580;2023-09-12T13:11:31;28.10;99.90
21759;DHT22;11041;50.854;20.580;2023-09-12T13:14:02;28.20;99.90
21759;DHT22;11041;50.854;20.580;2023-09-12T13:16:39;27.80;99.90
21759;DHT22;11041;50.854;20.580;2023-09-12T13:19:07;28.10;99.90
21759;DHT22;11041;50.854;20.580;2023-09-12T13:21:33;28.50;99.90
21759;DHT22;11041;50.854;20.580;2023-09-12T13:24:01;28.30;99.90
21759;DHT22;11041;50.854;20.580;2023-09-12T13:26:28;28.40;99.90
21759;DHT22;11041;50.854;20.580;2023-09-12T13:28:55;28.20;99.90
21759;DHT22;11041;50.854;20.580;2023-09-12T13:31:24;28.70;99.90
21759;DHT22;11041;50.854;20.580;2023-09-12T13:33:54;28.90;99.90
21759;DHT22;11041;50.854;20.580;2023-09-12T13:36:21;29.10;99.90
21759;DHT22;11041;50.854;20.580;2023-09-12T13:38:51;29.30;99.90
21759;DHT22;11041;50.854;20.580;2023-09-12T13:41:18;29.30;99.90
21759;DHT22;11041;50.854;20.580;2023-09-12T13:43:45;29.00;99.90
21759;DHT22;11041;50.854;20.580;2023-09-12T13:46:13;28.80;99.90
21759;DHT22;11041;50.854;20.580;2023-09-12T13:48:40;28.60;99.90
21759;DHT22;11041;50.854;20.580;2023-09-12T13:51:06;28.80;99.90
21759;DHT22;11041;50.854;20.580;2023-09-12T13:53:34;28.30;99.90
21759;DHT22;11041;50.854;20.580;2023-09-12T13:56:01;28.40;99.90
21759;DHT22;11041;50.854;20.580;2023-09-12T13:58:28;28.20;99.90
21759;DHT22;11041;50.854;20.580;2023-09-12T14:00:55;28.20;99.90
21759;DHT22;11041;50.854;20.580;2023-09-12T14:03:24;28.10;99.90
21759;DHT22;11041;50.854;20.580;2023-09-12T14:05:51;28.10;99.90
21759;DHT22;11041;50.854;20.580;2023-09-12T14:08:18;28.00;99.90
21759;DHT22;11041;50.854;20.580;2023-09-12T14:10:44;28.00;99.90
21759;DHT22;11041;50.854;20.580;2023-09-12T14:13:11;28.00;99.90
21759;DHT22;11041;50.854;20.580;2023-09-12T14:15:41;27.70;99.90
21759;DHT22;11041;50.854;20.580;2023-09-12T14:18:09;27.90;99.90
21759;DHT22;11041;50.854;20.580;2023-09-12T14:20:38;28.00;99.90
21759;DHT22;11041;50.854;20.580;2023-09-12T14:23:06;27.80;99.90
21759;DHT22;11041;50.854;20.580;2023-09-12T14:25:35;27.80;99.90
21759;DHT22;11041;50.854;20.580;2023-09-12T14:28:02;27.70;99.90
21759;DHT22;11041;50.854;20.580;2023-09-12T14:30:31;27.60;99.90
21759;DHT22;11041;50.854;20.580;2023-09-12T14:33:04;27.40;99.90
21759;DHT22;11041;50.854;20.580;2023-09-12T14:35:33;27.50;99.90
21759;DHT22;11041;50.854;20.580;2023-09-12T14:38:01;27.40;99.90
21759;DHT22;11041;50.854;20.580;2023-09-12T14:40:32;27.40;99.90
21759;DHT22;11041;50.854;20.580;2023-09-12T14:43:01;27.20;99.90
21759;DHT22;11041;50.854;20.580;2023-09-12T14:45:34;27.20;99.90
21759;DHT22;11041;50.854;20.580;2023-09-12T14:48:02;27.30;99.90
21759;DHT22;11041;50.854;20.580;2023-09-12T14:50:29;27.10;99.90
21759;DHT22;11041;50.854;20.580;2023-09-12T14:52:58;27.00;99.90
21759;DHT22;11041;50.854;20.580;2023-09-12T14:55:26;26.70;99.90
21759;DHT22;11041;50.854;20.580;2023-09-12T14:57:53;26.50;99.90
21759;DHT22;11041;50.854;20.580;2023-09-12T15:00:21;26.50;99.90
21759;DHT22;11041;50.854;20.580;2023-09-12T15:02:50;26.20;99.90
21759;DHT22;11041;50.854;20.580;2023-09-12T15:05:19;26.00;99.90
21759;DHT22;11041;50.854;20.580;2023-09-12T15:07:46;25.90;99.90
21759;DHT22;11041;50.854;20.580;2023-09-12T15:10:13;25.80;99.90
21759;DHT22;11041;50.854;20.580;2023-09-12T15:12:40;25.70;99.90
21759;DHT22;11041;50.854;20.580;2023-09-12T15:15:07;25.60;99.90
21759;DHT22;11041;50.854;20.580;2023-09-12T15:17:37;25.50;99.90
21759;DHT22;11041;50.854;20.580;2023-09-12T15:20:07;25.40;99.90
21759;DHT22;11041;50.854;20.580;2023-09-12T15:22:35;25.40;99.90
21759;DHT22;11041;50.854;20.580;2023-09-12T15:25:03;25.30;99.90
21759;DHT22;11041;50.854;20.580;2023-09-12T15:27:31;25.20;99.90
21759;DHT22;11041;50.854;20.580;2023-09-12T15:30:01;25.20;99.90
21759;DHT22;11041;50.854;20.580;2023-09-12T15:32:28;25.10;99.90
21759;DHT22;11041;50.854;20.580;2023-09-12T15:34:55;25.10;99.90
21759;DHT22;11041;50.854;20.580;2023-09-12T15:37:22;25.10;99.90
21759;DHT22;11041;50.854;20.580;2023-09-12T15:39:49;25.00;99.90
21759;DHT22;11041;50.854;20.580;2023-09-12T15:42:17;25.00;99.90